Harlech, United Kingdom
Current Conditions -  °F | °C
As of 8:50 PM on Thursday 27 Nov 2014 (Local Time) from EGOV Reporting Station
Scattered Clouds Scattered Clouds  
Wind Chill: 38°   Ceiling: Unl
Heat Index: 43°   Visibility: 6mi
Dew Point: 36°   Wind: 8mph
Humidity: 76%   Direction: 60°ENE
Pressure: 29.5"   Gusts: NA
Location:  52.86°N, 4.11°W
Report Text: EGOV 272050Z 06007KT 9999 FEW035 SCT060 06/02 Q0999 BLU
Loading
Personal Weather Stations






























Interactive Weather Map New forecast layout! Learn more

10-Day Weather Forecast

Advertisements
Track Severe Weather on mobile